sensor_id;sensor_type;location;lat;lon;timestamp;temperature;humidity
52669;DHT22;59898;52.786;6.892;2022-09-27T00:02:15;10.80;99.90
52669;DHT22;59898;52.786;6.892;2022-09-27T00:05:36;10.80;99.90
52669;DHT22;59898;52.786;6.892;2022-09-27T00:08:58;10.80;99.90
52669;DHT22;59898;52.786;6.892;2022-09-27T00:12:19;10.80;99.90
52669;DHT22;59898;52.786;6.892;2022-09-27T00:15:39;10.80;99.90
52669;DHT22;59898;52.786;6.892;2022-09-27T00:19:03;10.70;99.90
52669;DHT22;59898;52.786;6.892;2022-09-27T00:22:25;10.70;99.90
52669;DHT22;59898;52.786;6.892;2022-09-27T00:25:56;10.70;99.90
52669;DHT22;59898;52.786;6.892;2022-09-27T00:29:18;10.70;99.90
52669;DHT22;59898;52.786;6.892;2022-09-27T00:32:39;10.70;99.90
52669;DHT22;59898;52.786;6.892;2022-09-27T00:36:04;10.70;99.90
52669;DHT22;59898;52.786;6.892;2022-09-27T00:39:25;10.60;99.90
52669;DHT22;59898;52.786;6.892;2022-09-27T00:42:46;10.60;99.90
52669;DHT22;59898;52.786;6.892;2022-09-27T00:46:07;10.50;99.90
52669;DHT22;59898;52.786;6.892;2022-09-27T00:49:42;10.50;99.90
52669;DHT22;59898;52.786;6.892;2022-09-27T00:53:14;10.40;99.90
52669;DHT22;59898;52.786;6.892;2022-09-27T00:56:37;10.40;99.90
52669;DHT22;59898;52.786;6.892;2022-09-27T01:00:05;10.30;99.90
52669;DHT22;59898;52.786;6.892;2022-09-27T01:03:36;10.20;99.90
52669;DHT22;59898;52.786;6.892;2022-09-27T01:06:59;10.20;99.90
52669;DHT22;59898;52.786;6.892;2022-09-27T01:10:20;10.20;99.90
52669;DHT22;59898;52.786;6.892;2022-09-27T01:14:10;10.10;99.90
52669;DHT22;59898;52.786;6.892;2022-09-27T01:17:41;10.10;99.90
52669;DHT22;59898;52.786;6.892;2022-09-27T01:21:34;10.10;99.90
52669;DHT22;59898;52.786;6.892;2022-09-27T01:32:22;10.00;99.90
52669;DHT22;59898;52.786;6.892;2022-09-27T01:36:04;10.00;99.90
52669;DHT22;59898;52.786;6.892;2022-09-27T01:39:37;10.00;99.90
52669;DHT22;59898;52.786;6.892;2022-09-27T01:43:04;10.00;99.90
52669;DHT22;59898;52.786;6.892;2022-09-27T01:46:34;10.00;99.90
52669;DHT22;59898;52.786;6.892;2022-09-27T01:50:01;10.00;99.90
52669;DHT22;59898;52.786;6.892;2022-09-27T01:56:48;9.90;99.90
52669;DHT22;59898;52.786;6.892;2022-09-27T02:00:12;9.90;99.90
52669;DHT22;59898;52.786;6.892;2022-09-27T02:03:35;9.90;99.90
52669;DHT22;59898;52.786;6.892;2022-09-27T02:07:05;9.80;99.90
52669;DHT22;59898;52.786;6.892;2022-09-27T02:10:37;9.80;99.90
52669;DHT22;59898;52.786;6.892;2022-09-27T02:14:02;9.80;99.90
52669;DHT22;59898;52.786;6.892;2022-09-27T02:17:42;9.80;99.90
52669;DHT22;59898;52.786;6.892;2022-09-27T02:21:06;9.80;99.90
52669;DHT22;59898;52.786;6.892;2022-09-27T02:24:47;9.80;99.90
52669;DHT22;59898;52.786;6.892;2022-09-27T02:28:28;9.80;99.90
52669;DHT22;59898;52.786;6.892;2022-09-27T02:31:50;9.80;99.90
52669;DHT22;59898;52.786;6.892;2022-09-27T02:35:23;9.80;99.90
52669;DHT22;59898;52.786;6.892;2022-09-27T02:38:44;9.80;99.90
52669;DHT22;59898;52.786;6.892;2022-09-27T02:42:06;9.70;99.90
52669;DHT22;59898;52.786;6.892;2022-09-27T02:52:49;9.70;99.90
52669;DHT22;59898;52.786;6.892;2022-09-27T03:00:11;9.70;99.90
52669;DHT22;59898;52.786;6.892;2022-09-27T03:03:58;9.70;99.90
52669;DHT22;59898;52.786;6.892;2022-09-27T03:07:20;9.70;99.90
52669;DHT22;59898;52.786;6.892;2022-09-27T03:10:41;9.70;99.90
52669;DHT22;59898;52.786;6.892;2022-09-27T03:14:02;9.70;99.90
52669;DHT22;59898;52.786;6.892;2022-09-27T03:17:23;9.60;99.90
52669;DHT22;59898;52.786;6.892;2022-09-27T03:20:44;9.70;99.90
52669;DHT22;59898;52.786;6.892;2022-09-27T03:24:05;9.70;99.90
52669;DHT22;59898;52.786;6.892;2022-09-27T03:27:25;9.70;99.90
52669;DHT22;59898;52.786;6.892;2022-09-27T03:30:46;9.70;99.90
52669;DHT22;59898;52.786;6.892;2022-09-27T03:34:07;10.00;99.90
52669;DHT22;59898;52.786;6.892;2022-09-27T03:37:28;9.60;99.90
52669;DHT22;59898;52.786;6.892;2022-09-27T03:40:48;9.60;99.90
52669;DHT22;59898;52.786;6.892;2022-09-27T03:44:09;9.60;99.90
52669;DHT22;59898;52.786;6.892;2022-09-27T03:47:30;9.60;99.90
52669;DHT22;59898;52.786;6.892;2022-09-27T03:50:50;9.60;99.90
52669;DHT22;59898;52.786;6.892;2022-09-27T03:54:11;9.60;99.90
52669;DHT22;59898;52.786;6.892;2022-09-27T03:57:32;9.60;99.90
52669;DHT22;59898;52.786;6.892;2022-09-27T04:00:52;9.50;99.90
52669;DHT22;59898;52.786;6.892;2022-09-27T04:04:13;9.50;99.90
52669;DHT22;59898;52.786;6.892;2022-09-27T04:07:34;9.50;99.90
52669;DHT22;59898;52.786;6.892;2022-09-27T04:10:55;9.50;99.90
52669;DHT22;59898;52.786;6.892;2022-09-27T04:14:16;9.60;99.90
52669;DHT22;59898;52.786;6.892;2022-09-27T04:17:39;9.50;99.90
52669;DHT22;59898;52.786;6.892;2022-09-27T04:21:00;9.50;99.90
52669;DHT22;59898;52.786;6.892;2022-09-27T04:24:21;9.40;99.90
52669;DHT22;59898;52.786;6.892;2022-09-27T04:27:45;9.40;99.90
52669;DHT22;59898;52.786;6.892;2022-09-27T04:31:07;9.40;99.90
52669;DHT22;59898;52.786;6.892;2022-09-27T04:34:28;9.40;99.90
52669;DHT22;59898;52.786;6.892;2022-09-27T04:38:07;9.40;99.90
52669;DHT22;59898;52.786;6.892;2022-09-27T04:41:28;9.40;99.90
52669;DHT22;59898;52.786;6.892;2022-09-27T04:44:49;9.40;99.90
52669;DHT22;59898;52.786;6.892;2022-09-27T04:48:09;9.40;99.90
52669;DHT22;59898;52.786;6.892;2022-09-27T04:51:30;9.40;99.90
52669;DHT22;59898;52.786;6.892;2022-09-27T04:54:51;9.40;99.90
52669;DHT22;59898;52.786;6.892;2022-09-27T04:58:12;9.30;99.90
52669;DHT22;59898;52.786;6.892;2022-09-27T05:01:32;9.30;99.90
52669;DHT22;59898;52.786;6.892;2022-09-27T05:04:53;9.30;99.90
52669;DHT22;59898;52.786;6.892;2022-09-27T05:08:18;9.30;99.90
52669;DHT22;59898;52.786;6.892;2022-09-27T05:11:40;9.30;99.90
52669;DHT22;59898;52.786;6.892;2022-09-27T05:15:01;9.30;99.90
52669;DHT22;59898;52.786;6.892;2022-09-27T05:18:22;9.20;99.90
52669;DHT22;59898;52.786;6.892;2022-09-27T05:21:43;9.30;99.90
52669;DHT22;59898;52.786;6.892;2022-09-27T05:25:04;9.20;99.90
52669;DHT22;59898;52.786;6.892;2022-09-27T05:28:25;9.20;99.90
52669;DHT22;59898;52.786;6.892;2022-09-27T05:31:45;9.20;99.90
52669;DHT22;59898;52.786;6.892;2022-09-27T05:35:07;9.20;99.90
52669;DHT22;59898;52.786;6.892;2022-09-27T05:38:28;9.20;99.90
52669;DHT22;59898;52.786;6.892;2022-09-27T05:41:49;9.30;99.90
52669;DHT22;59898;52.786;6.892;2022-09-27T05:45:10;9.30;99.90
52669;DHT22;59898;52.786;6.892;2022-09-27T05:48:31;9.30;99.90
52669;DHT22;59898;52.786;6.892;2022-09-27T05:51:51;9.30;99.90
52669;DHT22;59898;52.786;6.892;2022-09-27T05:55:12;9.30;99.90
52669;DHT22;59898;52.786;6.892;2022-09-27T05:58:33;9.30;99.90
52669;DHT22;59898;52.786;6.892;2022-09-27T06:01:54;9.40;99.90
52669;DHT22;59898;52.786;6.892;2022-09-27T06:05:14;9.30;99.90
52669;DHT22;59898;52.786;6.892;2022-09-27T06:08:37;9.40;99.90
52669;DHT22;59898;52.786;6.892;2022-09-27T06:11:58;9.40;99.90
52669;DHT22;59898;52.786;6.892;2022-09-27T06:15:18;9.40;99.90
52669;DHT22;59898;52.786;6.892;2022-09-27T06:18:41;9.40;99.90
52669;DHT22;59898;52.786;6.892;2022-09-27T06:22:02;9.40;99.90
52669;DHT22;59898;52.786;6.892;2022-09-27T06:25:22;9.40;99.90
52669;DHT22;59898;52.786;6.892;2022-09-27T06:28:43;9.30;99.90
52669;DHT22;59898;52.786;6.892;2022-09-27T06:32:04;9.30;99.90
52669;DHT22;59898;52.786;6.892;2022-09-27T06:35:26;9.30;99.90
52669;DHT22;59898;52.786;6.892;2022-09-27T06:38:47;9.40;99.90
52669;DHT22;59898;52.786;6.892;2022-09-27T06:42:09;9.40;99.90
52669;DHT22;59898;52.786;6.892;2022-09-27T06:45:31;9.30;99.90
52669;DHT22;59898;52.786;6.892;2022-09-27T06:48:52;9.30;99.90
52669;DHT22;59898;52.786;6.892;2022-09-27T06:52:13;9.30;99.90
52669;DHT22;59898;52.786;6.892;2022-09-27T06:55:34;9.40;99.90
52669;DHT22;59898;52.786;6.892;2022-09-27T06:58:54;9.40;99.90
52669;DHT22;59898;52.786;6.892;2022-09-27T07:02:33;9.40;99.90
52669;DHT22;59898;52.786;6.892;2022-09-27T07:05:58;9.40;99.90
52669;DHT22;59898;52.786;6.892;2022-09-27T07:09:20;9.40;99.90
52669;DHT22;59898;52.786;6.892;2022-09-27T07:12:40;9.40;99.90
52669;DHT22;59898;52.786;6.892;2022-09-27T07:16:01;9.40;99.90
52669;DHT22;59898;52.786;6.892;2022-09-27T07:19:22;9.40;99.90
52669;DHT22;59898;52.786;6.892;2022-09-27T07:22:43;9.50;99.90
52669;DHT22;59898;52.786;6.892;2022-09-27T07:26:05;9.60;99.90
52669;DHT22;59898;52.786;6.892;2022-09-27T07:29:27;9.80;99.90
52669;DHT22;59898;52.786;6.892;2022-09-27T07:32:48;9.90;99.90
52669;DHT22;59898;52.786;6.892;2022-09-27T07:36:12;10.00;99.90
52669;DHT22;59898;52.786;6.892;2022-09-27T07:39:33;10.10;99.90
52669;DHT22;59898;52.786;6.892;2022-09-27T07:42:57;10.20;99.90
52669;DHT22;59898;52.786;6.892;2022-09-27T07:46:18;10.20;99.90
52669;DHT22;59898;52.786;6.892;2022-09-27T07:49:39;10.20;99.90
52669;DHT22;59898;52.786;6.892;2022-09-27T07:53:00;10.30;99.90
52669;DHT22;59898;52.786;6.892;2022-09-27T07:56:20;10.50;99.90
52669;DHT22;59898;52.786;6.892;2022-09-27T07:59:42;10.60;99.90
52669;DHT22;59898;52.786;6.892;2022-09-27T08:03:07;10.70;99.90
52669;DHT22;59898;52.786;6.892;2022-09-27T08:06:28;10.70;99.90
52669;DHT22;59898;52.786;6.892;2022-09-27T08:09:49;10.70;99.90
52669;DHT22;59898;52.786;6.892;2022-09-27T08:13:10;10.60;99.90
52669;DHT22;59898;52.786;6.892;2022-09-27T08:16:34;10.50;99.90
52669;DHT22;59898;52.786;6.892;2022-09-27T08:19:55;10.50;99.90
52669;DHT22;59898;52.786;6.892;2022-09-27T08:23:16;10.50;99.90
52669;DHT22;59898;52.786;6.892;2022-09-27T08:26:37;10.50;99.90
52669;DHT22;59898;52.786;6.892;2022-09-27T08:29:57;10.60;99.90
52669;DHT22;59898;52.786;6.892;2022-09-27T08:33:18;10.70;99.90
52669;DHT22;59898;52.786;6.892;2022-09-27T08:36:39;11.00;99.90
52669;DHT22;59898;52.786;6.892;2022-09-27T08:40:03;11.40;99.90
52669;DHT22;59898;52.786;6.892;2022-09-27T08:47:07;12.20;99.90
52669;DHT22;59898;52.786;6.892;2022-09-27T08:50:40;12.50;99.90
52669;DHT22;59898;52.786;6.892;2022-09-27T08:54:10;12.90;99.90
52669;DHT22;59898;52.786;6.892;2022-09-27T08:57:33;13.20;99.90
52669;DHT22;59898;52.786;6.892;2022-09-27T09:00:57;13.40;99.90
52669;DHT22;59898;52.786;6.892;2022-09-27T09:04:37;13.60;99.90
52669;DHT22;59898;52.786;6.892;2022-09-27T09:08:22;13.70;99.90
52669;DHT22;59898;52.786;6.892;2022-09-27T09:12:03;13.80;99.90
52669;DHT22;59898;52.786;6.892;2022-09-27T09:34:42;13.70;99.90
52669;DHT22;59898;52.786;6.892;2022-09-27T09:38:12;13.70;99.90
52669;DHT22;59898;52.786;6.892;2022-09-27T09:41:38;13.80;99.90
52669;DHT22;59898;52.786;6.892;2022-09-27T09:48:57;14.40;99.90
52669;DHT22;59898;52.786;6.892;2022-09-27T09:52:19;14.60;99.90
52669;DHT22;59898;52.786;6.892;2022-09-27T09:55:47;14.80;99.90
52669;DHT22;59898;52.786;6.892;2022-09-27T09:59:16;14.80;99.90
52669;DHT22;59898;52.786;6.892;2022-09-27T10:02:41;14.60;99.90
52669;DHT22;59898;52.786;6.892;2022-09-27T10:06:02;14.30;99.90
52669;DHT22;59898;52.786;6.892;2022-09-27T10:09:26;14.00;99.90
52669;DHT22;59898;52.786;6.892;2022-09-27T10:12:48;13.70;99.90
52669;DHT22;59898;52.786;6.892;2022-09-27T10:16:13;13.40;99.90
52669;DHT22;59898;52.786;6.892;2022-09-27T10:19:35;13.30;99.90
52669;DHT22;59898;52.786;6.892;2022-09-27T10:23:05;13.10;99.90
52669;DHT22;59898;52.786;6.892;2022-09-27T10:26:26;13.00;99.90
52669;DHT22;59898;52.786;6.892;2022-09-27T10:29:55;12.90;99.90
52669;DHT22;59898;52.786;6.892;2022-09-27T10:33:17;12.80;99.90
52669;DHT22;59898;52.786;6.892;2022-09-27T10:36:39;12.80;99.90
52669;DHT22;59898;52.786;6.892;2022-09-27T10:40:00;12.90;99.90
52669;DHT22;59898;52.786;6.892;2022-09-27T10:43:32;13.10;99.90
52669;DHT22;59898;52.786;6.892;2022-09-27T10:46:55;13.40;99.90
52669;DHT22;59898;52.786;6.892;2022-09-27T10:50:27;13.80;99.90
52669;DHT22;59898;52.786;6.892;2022-09-27T10:53:49;14.20;99.90
52669;DHT22;59898;52.786;6.892;2022-09-27T11:00:35;14.40;99.90
52669;DHT22;59898;52.786;6.892;2022-09-27T11:03:57;14.50;99.90
52669;DHT22;59898;52.786;6.892;2022-09-27T11:07:18;14.60;99.90
52669;DHT22;59898;52.786;6.892;2022-09-27T11:10:41;14.80;99.90
52669;DHT22;59898;52.786;6.892;2022-09-27T11:14:22;14.80;99.90
52669;DHT22;59898;52.786;6.892;2022-09-27T11:17:50;14.80;99.90
52669;DHT22;59898;52.786;6.892;2022-09-27T11:28:20;14.90;99.90
52669;DHT22;59898;52.786;6.892;2022-09-27T11:35:27;15.00;99.90
52669;DHT22;59898;52.786;6.892;2022-09-27T11:42:54;14.80;99.90
52669;DHT22;59898;52.786;6.892;2022-09-27T11:46:35;14.60;99.90
52669;DHT22;59898;52.786;6.892;2022-09-27T11:57:31;14.00;99.90
52669;DHT22;59898;52.786;6.892;2022-09-27T12:15:34;13.10;99.90
52669;DHT22;59898;52.786;6.892;2022-09-27T12:19:00;12.90;99.90
52669;DHT22;59898;52.786;6.892;2022-09-27T12:22:27;12.90;99.90
52669;DHT22;59898;52.786;6.892;2022-09-27T12:25:53;12.90;99.90
52669;DHT22;59898;52.786;6.892;2022-09-27T12:29:21;13.00;99.90
52669;DHT22;59898;52.786;6.892;2022-09-27T12:36:32;13.30;99.90
52669;DHT22;59898;52.786;6.892;2022-09-27T12:40:34;13.50;99.90
52669;DHT22;59898;52.786;6.892;2022-09-27T12:43:55;13.90;99.90
52669;DHT22;59898;52.786;6.892;2022-09-27T12:51:13;14.50;99.90
52669;DHT22;59898;52.786;6.892;2022-09-27T13:12:52;14.20;99.90
52669;DHT22;59898;52.786;6.892;2022-09-27T13:16:14;14.10;99.90
52669;DHT22;59898;52.786;6.892;2022-09-27T13:19:36;14.00;99.90
52669;DHT22;59898;52.786;6.892;2022-09-27T13:22:58;13.90;99.90
52669;DHT22;59898;52.786;6.892;2022-09-27T13:26:42;13.80;99.90
52669;DHT22;59898;52.786;6.892;2022-09-27T13:33:45;13.70;99.90
52669;DHT22;59898;52.786;6.892;2022-09-27T13:37:44;13.70;99.90
52669;DHT22;59898;52.786;6.892;2022-09-27T13:41:17;13.90;99.90
52669;DHT22;59898;52.786;6.892;2022-09-27T13:48:10;13.90;99.90
52669;DHT22;59898;52.786;6.892;2022-09-27T13:51:44;13.90;99.90
52669;DHT22;59898;52.786;6.892;2022-09-27T13:55:48;13.80;99.90
52669;DHT22;59898;52.786;6.892;2022-09-27T13:59:41;13.60;99.90
52669;DHT22;59898;52.786;6.892;2022-09-27T14:06:34;13.40;99.90
52669;DHT22;59898;52.786;6.892;2022-09-27T14:10:02;13.30;99.90
52669;DHT22;59898;52.786;6.892;2022-09-27T14:13:24;13.30;99.90
52669;DHT22;59898;52.786;6.892;2022-09-27T14:16:46;13.30;99.90
52669;DHT22;59898;52.786;6.892;2022-09-27T14:20:28;13.30;99.90
52669;DHT22;59898;52.786;6.892;2022-09-27T14:23:51;13.30;99.90
52669;DHT22;59898;52.786;6.892;2022-09-27T14:30:36;13.30;99.90
52669;DHT22;59898;52.786;6.892;2022-09-27T14:34:06;13.30;99.90
52669;DHT22;59898;52.786;6.892;2022-09-27T14:37:28;13.20;99.90
52669;DHT22;59898;52.786;6.892;2022-09-27T14:44:15;13.00;99.90
52669;DHT22;59898;52.786;6.892;2022-09-27T14:47:44;12.90;99.90
52669;DHT22;59898;52.786;6.892;2022-09-27T14:54:29;12.70;99.90
52669;DHT22;59898;52.786;6.892;2022-09-27T14:58:01;12.60;99.90
52669;DHT22;59898;52.786;6.892;2022-09-27T15:01:24;12.70;99.90
52669;DHT22;59898;52.786;6.892;2022-09-27T15:04:46;12.60;99.90
52669;DHT22;59898;52.786;6.892;2022-09-27T15:08:08;12.50;99.90
52669;DHT22;59898;52.786;6.892;2022-09-27T15:11:31;12.40;99.90
52669;DHT22;59898;52.786;6.892;2022-09-27T15:14:54;12.40;99.90
52669;DHT22;59898;52.786;6.892;2022-09-27T15:25:57;11.90;99.90
52669;DHT22;59898;52.786;6.892;2022-09-27T15:29:21;11.80;99.90
52669;DHT22;59898;52.786;6.892;2022-09-27T15:32:48;11.80;99.90
52669;DHT22;59898;52.786;6.892;2022-09-27T15:36:10;11.80;99.90
52669;DHT22;59898;52.786;6.892;2022-09-27T15:39:37;11.80;99.90
52669;DHT22;59898;52.786;6.892;2022-09-27T15:43:00;12.00;99.90
52669;DHT22;59898;52.786;6.892;2022-09-27T15:49:42;11.90;99.90
52669;DHT22;59898;52.786;6.892;2022-09-27T15:53:04;11.90;99.90
52669;DHT22;59898;52.786;6.892;2022-09-27T15:56:26;12.00;99.90
52669;DHT22;59898;52.786;6.892;2022-09-27T15:59:46;12.00;99.90
52669;DHT22;59898;52.786;6.892;2022-09-27T16:03:08;12.00;99.90
52669;DHT22;59898;52.786;6.892;2022-09-27T16:06:29;12.00;99.90
52669;DHT22;59898;52.786;6.892;2022-09-27T16:09:50;11.90;99.90
52669;DHT22;59898;52.786;6.892;2022-09-27T16:13:14;12.00;99.90
52669;DHT22;59898;52.786;6.892;2022-09-27T16:16:35;11.90;99.90
52669;DHT22;59898;52.786;6.892;2022-09-27T16:19:57;11.90;99.90
52669;DHT22;59898;52.786;6.892;2022-09-27T16:23:17;11.80;99.90
52669;DHT22;59898;52.786;6.892;2022-09-27T16:26:38;11.70;99.90
52669;DHT22;59898;52.786;6.892;2022-09-27T16:29:59;11.60;99.90
52669;DHT22;59898;52.786;6.892;2022-09-27T16:33:20;11.50;99.90
52669;DHT22;59898;52.786;6.892;2022-09-27T16:36:42;11.40;99.90
52669;DHT22;59898;52.786;6.892;2022-09-27T16:40:04;11.40;99.90
52669;DHT22;59898;52.786;6.892;2022-09-27T16:43:28;11.40;99.90
52669;DHT22;59898;52.786;6.892;2022-09-27T16:46:51;11.40;99.90
52669;DHT22;59898;52.786;6.892;2022-09-27T16:50:12;11.30;99.90
52669;DHT22;59898;52.786;6.892;2022-09-27T16:53:52;11.30;99.90
52669;DHT22;59898;52.786;6.892;2022-09-27T16:57:12;11.30;99.90
52669;DHT22;59898;52.786;6.892;2022-09-27T17:00:33;11.30;99.90
52669;DHT22;59898;52.786;6.892;2022-09-27T17:03:54;11.30;99.90
52669;DHT22;59898;52.786;6.892;2022-09-27T17:07:17;11.30;99.90
52669;DHT22;59898;52.786;6.892;2022-09-27T17:10:43;11.30;99.90
52669;DHT22;59898;52.786;6.892;2022-09-27T17:14:04;11.30;99.90
52669;DHT22;59898;52.786;6.892;2022-09-27T17:17:25;11.30;99.90
52669;DHT22;59898;52.786;6.892;2022-09-27T17:20:46;11.30;99.90
52669;DHT22;59898;52.786;6.892;2022-09-27T17:24:07;11.40;99.90
52669;DHT22;59898;52.786;6.892;2022-09-27T17:27:27;11.40;99.90
52669;DHT22;59898;52.786;6.892;2022-09-27T17:30:48;11.40;99.90
52669;DHT22;59898;52.786;6.892;2022-09-27T17:34:11;11.40;99.90
52669;DHT22;59898;52.786;6.892;2022-09-27T17:37:32;11.40;99.90
52669;DHT22;59898;52.786;6.892;2022-09-27T17:41:08;11.40;99.90
52669;DHT22;59898;52.786;6.892;2022-09-27T17:44:32;11.40;99.90
52669;DHT22;59898;52.786;6.892;2022-09-27T17:47:52;11.40;99.90
52669;DHT22;59898;52.786;6.892;2022-09-27T17:51:37;11.40;99.90
52669;DHT22;59898;52.786;6.892;2022-09-27T17:54:59;11.40;99.90
52669;DHT22;59898;52.786;6.892;2022-09-27T17:58:19;11.30;99.90
52669;DHT22;59898;52.786;6.892;2022-09-27T18:01:41;11.20;99.90
52669;DHT22;59898;52.786;6.892;2022-09-27T18:05:02;11.00;99.90
52669;DHT22;59898;52.786;6.892;2022-09-27T18:08:25;10.90;99.90
52669;DHT22;59898;52.786;6.892;2022-09-27T18:11:49;10.90;99.90
52669;DHT22;59898;52.786;6.892;2022-09-27T18:15:10;11.00;99.90
52669;DHT22;59898;52.786;6.892;2022-09-27T18:18:32;10.90;99.90
52669;DHT22;59898;52.786;6.892;2022-09-27T18:21:55;10.90;99.90
52669;DHT22;59898;52.786;6.892;2022-09-27T18:25:16;10.90;99.90
52669;DHT22;59898;52.786;6.892;2022-09-27T18:28:39;10.80;99.90
52669;DHT22;59898;52.786;6.892;2022-09-27T18:32:00;10.80;99.90
52669;DHT22;59898;52.786;6.892;2022-09-27T18:35:21;10.70;99.90
52669;DHT22;59898;52.786;6.892;2022-09-27T18:38:45;10.70;99.90
52669;DHT22;59898;52.786;6.892;2022-09-27T18:42:06;10.70;99.90
52669;DHT22;59898;52.786;6.892;2022-09-27T18:45:28;10.70;99.90
52669;DHT22;59898;52.786;6.892;2022-09-27T18:48:49;10.60;99.90
52669;DHT22;59898;52.786;6.892;2022-09-27T18:52:09;10.70;99.90
52669;DHT22;59898;52.786;6.892;2022-09-27T18:55:30;10.70;99.90
52669;DHT22;59898;52.786;6.892;2022-09-27T18:58:51;10.70;99.90
52669;DHT22;59898;52.786;6.892;2022-09-27T19:02:12;10.70;99.90
52669;DHT22;59898;52.786;6.892;2022-09-27T19:05:32;10.70;99.90
52669;DHT22;59898;52.786;6.892;2022-09-27T19:08:54;10.70;99.90
52669;DHT22;59898;52.786;6.892;2022-09-27T19:12:16;10.70;99.90
52669;DHT22;59898;52.786;6.892;2022-09-27T19:15:36;10.70;99.90
52669;DHT22;59898;52.786;6.892;2022-09-27T19:18:57;10.70;99.90
52669;DHT22;59898;52.786;6.892;2022-09-27T19:22:18;10.70;99.90
52669;DHT22;59898;52.786;6.892;2022-09-27T19:25:40;10.60;99.90
52669;DHT22;59898;52.786;6.892;2022-09-27T19:29:01;10.60;99.90
52669;DHT22;59898;52.786;6.892;2022-09-27T19:32:22;10.50;99.90
52669;DHT22;59898;52.786;6.892;2022-09-27T19:35:42;10.50;99.90
52669;DHT22;59898;52.786;6.892;2022-09-27T19:39:03;10.40;99.90
52669;DHT22;59898;52.786;6.892;2022-09-27T19:42:24;10.40;99.90
52669;DHT22;59898;52.786;6.892;2022-09-27T19:45:44;10.40;99.90
52669;DHT22;59898;52.786;6.892;2022-09-27T19:49:05;10.40;99.90
52669;DHT22;59898;52.786;6.892;2022-09-27T19:52:26;10.40;99.90
52669;DHT22;59898;52.786;6.892;2022-09-27T19:56:04;10.30;99.90
52669;DHT22;59898;52.786;6.892;2022-09-27T19:59:25;10.30;99.90
52669;DHT22;59898;52.786;6.892;2022-09-27T20:02:45;10.70;99.90
52669;DHT22;59898;52.786;6.892;2022-09-27T20:06:09;10.50;99.90
52669;DHT22;59898;52.786;6.892;2022-09-27T20:09:30;10.30;99.90
52669;DHT22;59898;52.786;6.892;2022-09-27T20:12:50;10.30;99.90
52669;DHT22;59898;52.786;6.892;2022-09-27T20:16:19;10.30;99.90
52669;DHT22;59898;52.786;6.892;2022-09-27T20:19:40;10.30;99.90
52669;DHT22;59898;52.786;6.892;2022-09-27T20:23:01;10.20;99.90
52669;DHT22;59898;52.786;6.892;2022-09-27T20:26:24;10.20;99.90
52669;DHT22;59898;52.786;6.892;2022-09-27T20:29:45;10.10;99.90
52669;DHT22;59898;52.786;6.892;2022-09-27T20:33:07;10.00;99.90
52669;DHT22;59898;52.786;6.892;2022-09-27T20:36:46;10.00;99.90
52669;DHT22;59898;52.786;6.892;2022-09-27T20:40:07;9.90;99.90
52669;DHT22;59898;52.786;6.892;2022-09-27T20:43:28;9.90;99.90
52669;DHT22;59898;52.786;6.892;2022-09-27T20:46:50;9.80;99.90
52669;DHT22;59898;52.786;6.892;2022-09-27T20:50:11;10.20;99.90
52669;DHT22;59898;52.786;6.892;2022-09-27T20:53:33;9.80;99.90
52669;DHT22;59898;52.786;6.892;2022-09-27T20:56:54;9.70;99.90
52669;DHT22;59898;52.786;6.892;2022-09-27T21:00:15;9.70;99.90
52669;DHT22;59898;52.786;6.892;2022-09-27T21:03:35;10.60;99.90
52669;DHT22;59898;52.786;6.892;2022-09-27T21:06:56;9.60;99.90
52669;DHT22;59898;52.786;6.892;2022-09-27T21:10:18;9.60;99.90
52669;DHT22;59898;52.786;6.892;2022-09-27T21:13:39;9.60;99.90
52669;DHT22;59898;52.786;6.892;2022-09-27T21:17:00;9.70;99.90
52669;DHT22;59898;52.786;6.892;2022-09-27T21:20:21;9.70;99.90
52669;DHT22;59898;52.786;6.892;2022-09-27T21:23:43;9.70;99.90
52669;DHT22;59898;52.786;6.892;2022-09-27T21:27:04;9.70;99.90
52669;DHT22;59898;52.786;6.892;2022-09-27T21:30:25;9.70;99.90
52669;DHT22;59898;52.786;6.892;2022-09-27T21:33:48;9.80;99.90
52669;DHT22;59898;52.786;6.892;2022-09-27T21:37:09;9.80;99.90
52669;DHT22;59898;52.786;6.892;2022-09-27T21:40:30;9.80;99.90
52669;DHT22;59898;52.786;6.892;2022-09-27T21:43:51;9.70;99.90
52669;DHT22;59898;52.786;6.892;2022-09-27T21:47:12;9.90;99.90
52669;DHT22;59898;52.786;6.892;2022-09-27T21:50:33;9.70;99.90
52669;DHT22;59898;52.786;6.892;2022-09-27T21:53:56;9.60;99.90
52669;DHT22;59898;52.786;6.892;2022-09-27T21:57:17;9.60;99.90
52669;DHT22;59898;52.786;6.892;2022-09-27T22:00:37;9.70;99.90
52669;DHT22;59898;52.786;6.892;2022-09-27T22:03:59;10.20;99.90
52669;DHT22;59898;52.786;6.892;2022-09-27T22:07:20;9.50;99.90
52669;DHT22;59898;52.786;6.892;2022-09-27T22:10:43;9.50;99.90
52669;DHT22;59898;52.786;6.892;2022-09-27T22:14:04;9.50;99.90
52669;DHT22;59898;52.786;6.892;2022-09-27T22:17:28;9.40;99.90
52669;DHT22;59898;52.786;6.892;2022-09-27T22:20:50;9.40;99.90
52669;DHT22;59898;52.786;6.892;2022-09-27T22:24:13;9.40;99.90
52669;DHT22;59898;52.786;6.892;2022-09-27T22:27:34;9.40;99.90
52669;DHT22;59898;52.786;6.892;2022-09-27T22:30:55;9.30;99.90
52669;DHT22;59898;52.786;6.892;2022-09-27T22:34:17;9.30;99.90
52669;DHT22;59898;52.786;6.892;2022-09-27T22:37:47;9.20;99.90
52669;DHT22;59898;52.786;6.892;2022-09-27T22:41:08;9.20;99.90
52669;DHT22;59898;52.786;6.892;2022-09-27T22:44:28;9.20;99.90
52669;DHT22;59898;52.786;6.892;2022-09-27T22:47:49;9.10;99.90
52669;DHT22;59898;52.786;6.892;2022-09-27T22:51:11;9.20;99.90
52669;DHT22;59898;52.786;6.892;2022-09-27T22:54:31;9.10;99.90
52669;DHT22;59898;52.786;6.892;2022-09-27T22:57:52;9.10;99.90
52669;DHT22;59898;52.786;6.892;2022-09-27T23:01:15;9.10;99.90
52669;DHT22;59898;52.786;6.892;2022-09-27T23:04:36;9.10;99.90
52669;DHT22;59898;52.786;6.892;2022-09-27T23:07:57;9.50;99.90
52669;DHT22;59898;52.786;6.892;2022-09-27T23:11:20;9.20;99.90
52669;DHT22;59898;52.786;6.892;2022-09-27T23:14:41;9.40;99.90
52669;DHT22;59898;52.786;6.892;2022-09-27T23:18:01;9.10;99.90
52669;DHT22;59898;52.786;6.892;2022-09-27T23:21:25;9.10;99.90
52669;DHT22;59898;52.786;6.892;2022-09-27T23:24:46;9.10;99.90
52669;DHT22;59898;52.786;6.892;2022-09-27T23:28:06;9.20;99.90
52669;DHT22;59898;52.786;6.892;2022-09-27T23:31:29;9.20;99.90
52669;DHT22;59898;52.786;6.892;2022-09-27T23:34:50;9.20;99.90
52669;DHT22;59898;52.786;6.892;2022-09-27T23:38:10;9.20;99.90
52669;DHT22;59898;52.786;6.892;2022-09-27T23:41:33;9.10;99.90
52669;DHT22;59898;52.786;6.892;2022-09-27T23:44:53;9.10;99.90
52669;DHT22;59898;52.786;6.892;2022-09-27T23:48:15;9.10;99.90
52669;DHT22;59898;52.786;6.892;2022-09-27T23:51:36;9.10;99.90
52669;DHT22;59898;52.786;6.892;2022-09-27T23:54:56;9.20;99.90
52669;DHT22;59898;52.786;6.892;2022-09-27T23:58:17;9.20;99.90
